Time;durP1;ratioP1;P1;durP2;ratioP2;P2;SDS_P1;SDS_P2;PMS_P1;PMS_P2;Temp;Humidity;BMP_temperature;BMP_pressure;BME280_temperature;BME280_humidity;BME280_pressure;Samples;Min_cycle;Max_cycle;Signal;HPM_P1;HPM_P2
2022/06/01 00:01:06;;;;;;;13.98;12.32;;;14.00;99.00;;;;;;4955646;28;92821;-70
2022/06/01 00:03:36;;;;;;;12.90;11.23;;;13.90;99.00;;;;;;4956965;28;93155;-70
2022/06/01 00:06:03;;;;;;;14.48;13.02;;;13.90;99.00;;;;;;4956799;28;93118;-70
2022/06/01 00:08:30;;;;;;;13.13;11.75;;;13.90;99.10;;;;;;4957077;28;92441;-70
2022/06/01 00:10:58;;;;;;;13.85;12.50;;;13.90;99.20;;;;;;4956839;28;92458;-70
2022/06/01 00:13:26;;;;;;;14.60;13.30;;;13.80;99.20;;;;;;4957060;28;93269;-70
2022/06/01 00:15:54;;;;;;;16.25;14.57;;;13.90;99.30;;;;;;4957019;28;93011;-70
2022/06/01 00:18:22;;;;;;;14.75;13.15;;;13.80;99.30;;;;;;4957108;28;92921;-70
2022/06/01 00:20:51;;;;;;;13.15;11.85;;;13.80;99.40;;;;;;4955520;28;92496;-70
2022/06/01 00:23:19;;;;;;;14.07;12.68;;;13.80;99.30;;;;;;4955365;28;95743;-70
2022/06/01 00:25:46;;;;;;;14.80;12.98;;;13.80;99.30;;;;;;4938399;28;96600;-70
2022/06/01 00:28:13;;;;;;;14.95;13.43;;;13.80;99.20;;;;;;4938863;28;92618;-70
2022/06/01 00:30:40;;;;;;;13.18;11.93;;;13.80;99.40;;;;;;4939448;28;92906;-70
2022/06/01 00:33:08;;;;;;;14.10;12.70;;;13.80;99.70;;;;;;4956377;28;92394;-70
2022/06/01 00:35:35;;;;;;;14.45;12.95;;;13.70;99.80;;;;;;4938668;28;94276;-70
2022/06/01 00:38:02;;;;;;;14.90;13.35;;;13.70;99.90;;;;;;4955535;28;92568;-70
2022/06/01 00:40:31;;;;;;;13.88;12.48;;;13.70;99.90;;;;;;4955549;28;91851;-70
2022/06/01 00:43:01;;;;;;;13.50;12.10;;;13.70;99.90;;;;;;4938454;28;94214;-70
2022/06/01 00:45:31;;;;;;;14.60;13.05;;;13.70;99.90;;;;;;4956283;28;92955;-70
2022/06/01 00:47:58;;;;;;;14.65;12.40;;;13.80;99.80;;;;;;4955185;28;94725;-70
2022/06/01 00:50:26;;;;;;;13.60;12.20;;;13.70;99.80;;;;;;4956410;28;92441;-70
2022/06/01 00:53:16;;;;;;;13.45;11.98;;;13.70;99.70;;;;;;4954394;28;93197;-70
2022/06/01 00:55:47;;;;;;;13.35;12.10;;;13.80;99.50;;;;;;4938986;28;92474;-70
2022/06/01 00:58:28;;;;;;;13.57;12.10;;;13.70;99.60;;;;;;4956343;28;92978;-70
2022/06/01 01:00:56;;;;;;;13.75;12.38;;;13.80;99.60;;;;;;4939095;28;92530;-70
2022/06/01 01:03:26;;;;;;;14.48;13.07;;;13.70;99.90;;;;;;4938094;28;95745;-70
2022/06/01 01:06:16;;;;;;;14.30;12.90;;;13.70;99.90;;;;;;4954956;28;96239;-70
2022/06/01 01:08:44;;;;;;;14.18;12.75;;;13.70;99.90;;;;;;4955991;28;92421;-70
2022/06/01 01:11:12;;;;;;;13.77;12.38;;;13.70;99.90;;;;;;4955840;28;92390;-70
2022/06/01 01:13:44;;;;;;;14.05;12.65;;;13.70;99.90;;;;;;4954054;28;108481;-70
2022/06/01 01:16:12;;;;;;;15.30;13.80;;;13.80;99.90;;;;;;4954345;28;98130;-70
2022/06/01 01:18:43;;;;;;;14.65;13.15;;;13.70;99.90;;;;;;4954535;28;92535;-70
2022/06/01 01:21:35;;;;;;;14.05;12.75;;;13.70;99.90;;;;;;4955812;28;92497;-70
2022/06/01 01:24:40;;;;;;;15.88;13.38;;;13.80;99.90;;;;;;4938047;28;96191;-70
2022/06/01 01:27:07;;;;;;;14.82;13.30;;;13.70;99.90;;;;;;4915553;28;93059;-70
2022/06/01 01:29:43;;;;;;;15.15;12.70;;;13.60;99.90;;;;;;4955384;28;102055;-70
2022/06/01 01:32:13;;;;;;;13.75;12.48;;;13.70;99.90;;;;;;4956252;28;91722;-70
2022/06/01 01:34:41;;;;;;;14.32;13.00;;;13.70;99.90;;;;;;4937831;28;95801;-70
2022/06/01 01:37:16;;;;;;;15.05;13.50;;;13.70;99.90;;;;;;4921970;28;93165;-70
2022/06/01 01:39:44;;;;;;;15.38;13.68;;;13.70;99.90;;;;;;4954741;28;94835;-70
2022/06/01 01:42:10;;;;;;;14.85;13.45;;;13.60;99.90;;;;;;4937709;28;92459;-70
2022/06/01 01:44:47;;;;;;;15.13;13.52;;;13.60;99.90;;;;;;4955807;28;93295;-70
2022/06/01 01:47:14;;;;;;;15.45;13.85;;;13.60;99.90;;;;;;4955397;28;93066;-70
2022/06/01 01:49:42;;;;;;;17.58;14.55;;;13.60;99.90;;;;;;4938040;28;92536;-70
2022/06/01 01:52:13;;;;;;;17.25;14.65;;;13.60;99.90;;;;;;4937490;28;92520;-70
2022/06/01 01:55:07;;;;;;;16.73;14.95;;;13.60;99.90;;;;;;4953455;28;95805;-70
2022/06/01 01:58:01;;;;;;;16.60;14.93;;;13.70;99.90;;;;;;4955697;28;93153;-70
2022/06/01 02:00:35;;;;;;;15.93;14.25;;;13.60;99.90;;;;;;4918448;28;92553;-71
2022/06/01 02:03:16;;;;;;;16.80;14.80;;;13.60;99.90;;;;;;4938186;28;92402;-70
2022/06/01 02:06:04;;;;;;;17.42;15.45;;;13.50;99.90;;;;;;4954105;28;95661;-70
2022/06/01 02:08:33;;;;;;;15.63;14.02;;;13.50;99.90;;;;;;4953403;28;98013;-70
2022/06/01 02:14:15;;;;;;;15.95;14.35;;;13.50;99.90;;;;;;4937358;28;92501;-70
2022/06/01 02:16:49;;;;;;;15.70;14.10;;;13.40;99.90;;;;;;4937333;28;95653;-71
2022/06/01 02:19:18;;;;;;;;;;;13.40;99.90;;;;;;4955435;28;94010;-70
2022/06/01 02:21:45;;;;;;;18.02;14.25;;;13.30;99.90;;;;;;4939022;28;92529;-70
2022/06/01 02:24:12;;;;;;;15.73;14.20;;;13.20;99.90;;;;;;4921650;28;91861;-71
2022/06/01 02:26:39;;;;;;;17.10;15.35;;;13.20;99.90;;;;;;4936923;28;95695;-70
2022/06/01 02:29:14;;;;;;;17.20;15.45;;;13.20;99.90;;;;;;4953738;28;92950;-70
2022/06/01 02:31:42;;;;;;;17.92;16.13;;;13.20;99.90;;;;;;4936677;28;94935;-70
2022/06/01 02:34:10;;;;;;;18.33;15.57;;;13.10;99.90;;;;;;4955322;28;92453;-71
2022/06/01 02:36:40;;;;;;;16.83;15.05;;;13.10;99.90;;;;;;4937289;28;93260;-70
2022/06/01 02:39:09;;;;;;;17.75;15.95;;;13.10;99.90;;;;;;4954589;28;92846;-70
2022/06/01 02:44:21;;;;;;;18.48;16.50;;;13.00;99.90;;;;;;4953207;28;92485;-70
2022/06/01 02:46:48;;;;;;;17.50;15.27;;;13.00;99.90;;;;;;4937053;28;95902;-70
2022/06/01 02:49:17;;;;;;;18.45;16.70;;;13.00;99.90;;;;;;4953468;28;95943;-70
2022/06/01 02:51:46;;;;;;;16.02;14.35;;;13.00;99.90;;;;;;4936968;28;92641;-70
2022/06/01 02:54:13;;;;;;;17.95;15.27;;;13.00;99.90;;;;;;4954364;28;92442;-70
2022/06/01 02:56:40;;;;;;;18.20;16.17;;;13.00;99.90;;;;;;4952350;28;95710;-70
2022/06/01 02:59:07;;;;;;;18.35;16.45;;;13.00;99.90;;;;;;4953343;28;95485;-70
2022/06/01 03:01:36;;;;;;;17.48;15.63;;;13.00;99.90;;;;;;4954426;28;92582;-70
2022/06/01 03:04:05;;;;;;;18.38;15.05;;;13.00;99.90;;;;;;4940304;28;92678;-70
2022/06/01 03:06:33;;;;;;;17.00;15.30;;;13.00;99.90;;;;;;4957329;28;97623;-70
2022/06/01 03:09:20;;;;;;;18.27;16.38;;;13.00;99.90;;;;;;4926639;28;95780;-70
2022/06/01 03:11:47;;;;;;;18.00;16.20;;;13.00;99.90;;;;;;4940543;28;92447;-70
2022/06/01 03:14:14;;;;;;;17.50;15.63;;;13.00;99.90;;;;;;4958316;28;91615;-70
2022/06/01 03:16:41;;;;;;;18.73;17.02;;;13.00;99.90;;;;;;4956292;28;93310;-70
2022/06/01 03:19:08;;;;;;;19.35;17.35;;;13.10;99.90;;;;;;4957805;28;93137;-70
2022/06/01 03:21:35;;;;;;;19.65;17.63;;;13.10;99.90;;;;;;4922773;28;94913;-70
2022/06/01 03:24:01;;;;;;;18.48;16.77;;;13.10;99.90;;;;;;4957760;28;92510;-70
2022/06/01 03:26:28;;;;;;;20.95;17.10;;;13.10;99.90;;;;;;4957283;28;93259;-71
2022/06/01 03:28:56;;;;;;;18.92;16.98;;;13.20;99.90;;;;;;4939952;28;93122;-70
2022/06/01 03:31:23;;;;;;;18.92;17.08;;;13.20;99.90;;;;;;4957243;28;92425;-70
2022/06/01 03:33:50;;;;;;;20.58;18.00;;;13.20;99.90;;;;;;4940401;28;92563;-70
2022/06/01 03:36:17;;;;;;;19.02;17.17;;;13.20;99.90;;;;;;4955790;28;95904;-70
2022/06/01 03:38:44;;;;;;;19.25;17.25;;;13.30;99.90;;;;;;4957575;28;92955;-70
2022/06/01 03:41:11;;;;;;;18.50;16.55;;;13.30;99.90;;;;;;4939613;28;99207;-70
2022/06/01 03:46:23;;;;;;;20.05;17.98;;;13.30;99.90;;;;;;4956016;28;95878;-70
2022/06/01 03:48:51;;;;;;;19.98;18.08;;;13.30;99.90;;;;;;4955717;28;100881;-70
2022/06/01 03:51:18;;;;;;;20.83;18.60;;;13.40;99.90;;;;;;4939955;28;93152;-70
2022/06/01 03:53:46;;;;;;;20.95;18.05;;;13.40;99.90;;;;;;4956419;28;92481;-70
2022/06/01 03:56:13;;;;;;;21.20;19.20;;;13.40;99.90;;;;;;4957147;28;93156;-71
2022/06/01 03:58:40;;;;;;;20.48;18.67;;;13.50;99.90;;;;;;4939178;28;95570;-70
2022/06/01 04:01:07;;;;;;;19.17;17.17;;;13.50;99.90;;;;;;4957316;28;92374;-70
2022/06/01 04:03:34;;;;;;;20.65;18.65;;;13.50;99.90;;;;;;4957457;28;91675;-70
2022/06/01 04:06:01;;;;;;;21.33;19.13;;;13.60;99.90;;;;;;4957066;28;93291;-70
2022/06/01 04:08:28;;;;;;;19.65;17.85;;;13.60;99.90;;;;;;4956621;28;95536;-70
2022/06/01 04:10:55;;;;;;;21.15;19.02;;;13.70;99.90;;;;;;4955873;28;95150;-70
2022/06/01 04:13:25;;;;;;;19.95;18.02;;;13.70;99.90;;;;;;4939758;28;92487;-70
2022/06/01 04:15:52;;;;;;;20.90;18.55;;;13.80;99.90;;;;;;4956681;28;93361;-70
2022/06/01 04:18:19;;;;;;;20.30;18.40;;;13.80;99.90;;;;;;4956743;28;92646;-71
2022/06/01 04:20:48;;;;;;;20.45;18.55;;;13.90;99.80;;;;;;4956901;28;93018;-70
2022/06/01 04:23:15;;;;;;;20.67;18.65;;;13.90;99.80;;;;;;4956786;28;92471;-70
2022/06/01 04:25:42;;;;;;;20.38;18.38;;;13.90;99.70;;;;;;4955921;28;109408;-70
2022/06/01 04:28:09;;;;;;;22.80;20.60;;;14.00;99.70;;;;;;4923145;28;95620;-70
2022/06/01 04:30:36;;;;;;;20.92;18.90;;;14.00;99.70;;;;;;4956581;28;92493;-70
2022/06/01 04:33:04;;;;;;;21.90;19.80;;;14.10;99.60;;;;;;4939398;28;92524;-70
2022/06/01 04:35:31;;;;;;;22.48;20.38;;;14.10;99.60;;;;;;4937757;28;95705;-70
2022/06/01 04:38:12;;;;;;;21.75;19.65;;;14.10;99.50;;;;;;4938587;28;98442;-70
2022/06/01 04:40:52;;;;;;;20.08;18.13;;;14.20;99.50;;;;;;4956499;28;92427;-70
2022/06/01 04:43:21;;;;;;;21.33;19.15;;;14.20;99.40;;;;;;4938961;28;92539;-70
2022/06/01 04:45:54;;;;;;;21.73;19.65;;;14.30;99.40;;;;;;4954833;28;95899;-70
2022/06/01 04:48:22;;;;;;;23.08;20.65;;;14.30;99.30;;;;;;4938706;28;93315;-70
2022/06/01 04:50:50;;;;;;;22.23;20.05;;;14.30;99.20;;;;;;4938978;28;92510;-70
2022/06/01 04:53:17;;;;;;;21.48;19.17;;;14.40;99.20;;;;;;4939372;28;91779;-70
2022/06/01 04:55:46;;;;;;;21.27;19.27;;;14.40;99.20;;;;;;4938718;28;93229;-70
2022/06/01 04:58:13;;;;;;;22.27;19.88;;;14.40;99.10;;;;;;4938861;28;93388;-70
2022/06/01 05:00:42;;;;;;;22.17;19.92;;;14.40;99.10;;;;;;4955038;28;95181;-70
2022/06/01 05:03:10;;;;;;;20.90;18.83;;;14.50;99.10;;;;;;4956005;28;92973;-70
2022/06/01 05:05:39;;;;;;;20.83;18.95;;;14.50;99.10;;;;;;4938456;28;93348;-70
2022/06/01 05:08:13;;;;;;;22.38;20.27;;;14.50;99.00;;;;;;4954654;28;96808;-70
2022/06/01 05:10:41;;;;;;;21.92;19.83;;;14.60;99.00;;;;;;4938557;28;92729;-70
2022/06/01 05:13:10;;;;;;;21.20;19.30;;;14.60;98.90;;;;;;4954970;28;92482;-70
2022/06/01 05:15:52;;;;;;;22.48;20.38;;;14.70;98.90;;;;;;4937975;28;93151;-70
2022/06/01 05:18:19;;;;;;;21.63;19.42;;;14.80;98.80;;;;;;4938968;28;93792;-70
2022/06/01 05:20:47;;;;;;;20.92;19.02;;;14.70;98.80;;;;;;4954618;28;92456;-70
2022/06/01 05:23:16;;;;;;;23.13;20.98;;;14.80;98.70;;;;;;4938179;28;92502;-70
2022/06/01 05:25:45;;;;;;;22.33;20.05;;;14.80;98.60;;;;;;4937073;28;95477;-70
2022/06/01 05:28:16;;;;;;;22.45;20.23;;;14.90;98.60;;;;;;4955718;28;95489;-70
2022/06/01 05:30:43;;;;;;;23.15;20.92;;;15.00;98.40;;;;;;4955925;28;92951;-70
2022/06/01 05:33:09;;;;;;;24.20;21.55;;;15.00;98.20;;;;;;4954462;28;92530;-70
2022/06/01 05:35:37;;;;;;;22.88;20.55;;;15.10;98.20;;;;;;4954455;28;93274;-70
2022/06/01 05:38:04;;;;;;;22.58;20.33;;;15.10;98.20;;;;;;4937895;28;95778;-70
2022/06/01 05:40:31;;;;;;;23.58;21.17;;;15.10;98.10;;;;;;4954567;28;93346;-70
2022/06/01 05:42:58;;;;;;;22.05;19.85;;;15.10;98.10;;;;;;4906358;28;92879;-70
2022/06/01 05:45:26;;;;;;;22.83;20.52;;;15.10;98.10;;;;;;4921845;28;96237;-70
2022/06/01 05:47:53;;;;;;;21.95;19.85;;;15.10;98.20;;;;;;4955353;28;93111;-70
2022/06/01 05:50:20;;;;;;;22.75;20.60;;;15.00;98.20;;;;;;4936671;28;94858;-70
2022/06/01 05:52:47;;;;;;;24.05;21.65;;;15.00;98.30;;;;;;4953618;28;92664;-70
2022/06/01 05:55:14;;;;;;;22.95;20.50;;;15.00;98.50;;;;;;4953820;28;95921;-70
2022/06/01 05:57:41;;;;;;;23.58;21.35;;;15.00;98.70;;;;;;4937533;28;95602;-70
2022/06/01 06:00:10;;;;;;;22.50;20.20;;;14.90;98.70;;;;;;4954318;28;92400;-70
2022/06/01 06:02:41;;;;;;;23.60;21.10;;;14.90;98.80;;;;;;4955584;28;93258;-70
2022/06/01 06:07:56;;;;;;;22.80;20.60;;;14.90;98.80;;;;;;4955222;28;92210;-70
2022/06/01 06:10:23;;;;;;;23.50;21.20;;;14.80;99.10;;;;;;4905898;28;92481;-70
2022/06/01 06:12:50;;;;;;;22.38;20.08;;;14.80;99.00;;;;;;4955147;28;93068;-70
2022/06/01 06:15:17;;;;;;;22.58;20.23;;;14.80;99.00;;;;;;4920196;28;98085;-70
2022/06/01 06:17:49;;;;;;;20.92;18.83;;;14.80;99.00;;;;;;4954907;28;95492;-70
2022/06/01 06:20:16;;;;;;;21.27;19.23;;;14.80;99.00;;;;;;4937704;28;92586;-70
2022/06/01 06:22:43;;;;;;;21.70;19.60;;;14.90;99.00;;;;;;4955135;28;92432;-70
2022/06/01 06:25:10;;;;;;;21.80;19.70;;;14.90;99.00;;;;;;4955038;28;93367;-70
2022/06/01 06:27:37;;;;;;;23.02;20.63;;;14.90;99.00;;;;;;4953545;28;94646;-70
2022/06/01 06:30:05;;;;;;;20.02;18.02;;;15.00;99.00;;;;;;4937230;28;92501;-70
2022/06/01 06:32:32;;;;;;;19.30;17.35;;;15.00;99.10;;;;;;4955506;28;92056;-70
2022/06/01 06:34:59;;;;;;;19.55;17.70;;;15.10;98.90;;;;;;4920991;28;93262;-70
2022/06/01 06:37:26;;;;;;;18.75;16.92;;;15.10;98.90;;;;;;4940271;28;92972;-70
2022/06/01 06:39:52;;;;;;;18.42;16.55;;;15.20;98.70;;;;;;4957169;28;94844;-70
2022/06/01 06:42:19;;;;;;;19.08;17.10;;;15.30;98.60;;;;;;4940656;28;92572;-70
2022/06/01 06:44:47;;;;;;;19.42;17.63;;;15.30;98.50;;;;;;4924623;28;95816;-70
2022/06/01 06:47:14;;;;;;;18.15;16.45;;;15.40;98.30;;;;;;4958112;28;93091;-70
2022/06/01 06:49:41;;;;;;;18.05;16.25;;;15.40;98.10;;;;;;4940767;28;92416;-71
2022/06/01 06:52:08;;;;;;;16.77;14.85;;;15.50;97.90;;;;;;4940454;28;93142;-70
2022/06/01 06:54:35;;;;;;;17.23;15.68;;;15.70;97.70;;;;;;4940153;28;95742;-70
2022/06/01 06:57:01;;;;;;;17.58;16.00;;;15.70;97.50;;;;;;4958280;28;93181;-71
2022/06/01 06:59:28;;;;;;;15.98;14.38;;;15.90;97.20;;;;;;4958318;28;92425;-71
2022/06/01 07:01:55;;;;;;;16.60;15.00;;;16.00;96.70;;;;;;4939841;28;92538;-71
2022/06/01 07:04:22;;;;;;;16.75;15.05;;;16.20;96.40;;;;;;4938908;28;98150;-71
2022/06/01 07:06:49;;;;;;;14.75;13.13;;;16.30;96.20;;;;;;4957658;28;95381;-71
2022/06/01 07:09:16;;;;;;;13.07;11.98;;;16.50;95.90;;;;;;4957953;28;92471;-70
2022/06/01 07:11:43;;;;;;;13.02;11.82;;;16.60;95.90;;;;;;4940130;28;92503;-71
2022/06/01 07:14:10;;;;;;;11.70;10.68;;;16.80;95.20;;;;;;4957658;28;93310;-71
2022/06/01 07:16:37;;;;;;;12.80;11.70;;;17.00;94.90;;;;;;4939428;28;95596;-71
2022/06/01 07:19:06;;;;;;;12.35;11.35;;;17.10;94.50;;;;;;4939710;28;92544;-71
2022/06/01 07:21:36;;;;;;;13.93;12.73;;;17.30;94.20;;;;;;4958037;28;91751;-71
2022/06/01 07:24:05;;;;;;;14.55;13.27;;;17.50;94.00;;;;;;4940506;28;93306;-71
2022/06/01 07:26:39;;;;;;;12.48;11.27;;;17.70;93.70;;;;;;4957502;28;93160;-70
2022/06/01 07:29:07;;;;;;;13.15;12.05;;;18.00;93.40;;;;;;4938334;28;94928;-71
2022/06/01 07:31:34;;;;;;;13.57;12.40;;;18.10;93.20;;;;;;4957692;28;92441;-71
2022/06/01 07:34:02;;;;;;;13.48;12.38;;;18.20;92.80;;;;;;4957356;28;93280;-71
2022/06/01 07:36:30;;;;;;;12.43;11.43;;;18.40;92.50;;;;;;4957536;28;92997;-71
2022/06/01 07:44:39;;;;;;;11.60;10.55;;;18.70;91.60;;;;;;4957507;28;93276;-71
2022/06/01 07:47:07;;;;;;;13.52;12.32;;;18.80;91.60;;;;;;4939686;28;93133;-71
2022/06/01 07:49:54;;;;;;;13.18;11.93;;;18.90;90.90;;;;;;4942755;28;92608;-71
2022/06/01 07:52:41;;;;;;;11.60;10.60;;;19.10;90.70;;;;;;4956798;28;92473;-71
2022/06/01 07:55:09;;;;;;;13.25;12.15;;;19.30;90.60;;;;;;4955694;28;99385;-71
2022/06/01 07:57:36;;;;;;;11.73;10.73;;;19.60;90.00;;;;;;4956994;28;95491;-71
2022/06/01 08:00:04;;;;;;;9.45;8.75;;;19.90;89.20;;;;;;4939342;28;92516;-71
2022/06/01 08:02:38;;;;;;;11.25;10.35;;;20.10;87.80;;;;;;4958000;28;92492;-71
2022/06/01 08:05:07;;;;;;;10.13;9.32;;;20.30;86.50;;;;;;4957033;28;93272;-71
2022/06/01 08:07:34;;;;;;;11.70;10.82;;;20.50;85.90;;;;;;4956381;28;92970;-71
2022/06/01 08:10:02;;;;;;;11.00;10.10;;;20.60;85.50;;;;;;4955491;28;92526;-71
2022/06/01 08:15:14;;;;;;;10.68;9.88;;;21.00;84.60;;;;;;4956808;28;92500;-71
2022/06/01 08:17:47;;;;;;;11.00;10.20;;;21.20;84.00;;;;;;4924306;28;95574;-71
2022/06/01 08:20:15;;;;;;;11.27;10.38;;;21.30;83.40;;;;;;4955562;28;94928;-71
2022/06/01 08:22:44;;;;;;;11.10;10.18;;;21.30;82.70;;;;;;4939759;28;92528;-71
2022/06/01 08:25:14;;;;;;;10.80;9.90;;;21.30;82.50;;;;;;4956583;28;92630;-71
2022/06/01 08:27:41;;;;;;;11.23;10.38;;;21.30;83.00;;;;;;4939617;28;92537;-71
2022/06/01 08:30:08;;;;;;;10.95;9.95;;;21.10;83.90;;;;;;4939215;28;92489;-71
2022/06/01 08:32:35;;;;;;;9.30;8.40;;;20.90;85.00;;;;;;4957341;28;92514;-71
2022/06/01 08:35:05;;;;;;;8.60;7.88;;;20.70;84.90;;;;;;4939762;28;93270;-71
2022/06/01 08:37:32;;;;;;;12.18;9.93;;;20.50;85.50;;;;;;4956131;28;94007;-71
2022/06/01 08:39:58;;;;;;;8.60;7.90;;;20.20;87.00;;;;;;4923375;28;92401;-71
2022/06/01 08:42:27;;;;;;;7.57;6.88;;;20.00;88.40;;;;;;4957036;28;92410;-71
2022/06/01 08:45:01;;;;;;;5.80;5.22;;;19.60;87.90;;;;;;4938266;28;95662;-71
2022/06/01 08:47:35;;;;;;;4.38;4.00;;;19.40;88.60;;;;;;4957017;28;96171;-71
2022/06/01 08:50:08;;;;;;;5.40;5.00;;;19.00;89.30;;;;;;4939849;28;92423;-71
2022/06/01 08:52:35;;;;;;;4.53;4.20;;;18.70;90.00;;;;;;4956770;28;92403;-71
2022/06/01 08:55:02;;;;;;;3.00;2.70;;;18.40;90.40;;;;;;4956889;28;95231;-71
2022/06/01 08:57:54;;;;;;;3.33;2.67;;;18.10;90.60;;;;;;4956691;28;92917;-71
2022/06/01 09:00:23;;;;;;;2.03;1.92;;;17.90;90.90;;;;;;4954712;28;92477;-71
2022/06/01 09:03:09;;;;;;;3.03;2.22;;;17.60;91.30;;;;;;4955717;28;91807;-71
2022/06/01 09:05:44;;;;;;;1.63;1.30;;;17.40;91.70;;;;;;4956426;28;93156;-71
2022/06/01 09:08:34;;;;;;;1.88;1.55;;;17.20;91.80;;;;;;4956389;28;92929;-71
2022/06/01 09:11:06;;;;;;;1.40;1.30;;;17.00;91.90;;;;;;4954377;28;95087;-71
2022/06/01 09:13:53;;;;;;;1.83;1.30;;;16.90;92.10;;;;;;4956563;28;92477;-71
2022/06/01 09:16:21;;;;;;;1.92;1.83;;;16.80;92.30;;;;;;4938912;28;93296;-71
2022/06/01 09:18:52;;;;;;;2.55;2.45;;;16.80;92.50;;;;;;4954993;28;95658;-71
2022/06/01 09:24:12;;;;;;;1.50;1.48;;;17.00;92.60;;;;;;4956459;28;92504;-71
2022/06/01 09:27:10;;;;;;;1.67;1.63;;;17.30;92.60;;;;;;4956169;28;93396;-71
2022/06/01 09:29:48;;;;;;;2.75;2.65;;;17.70;92.40;;;;;;4946674;28;99859;-71
2022/06/01 09:32:27;;;;;;;1.75;1.65;;;18.00;91.50;;;;;;4939024;28;92564;-71
2022/06/01 09:35:00;;;;;;;1.10;1.10;;;18.30;91.50;;;;;;4938509;28;92624;-71
2022/06/01 09:37:36;;;;;;;1.55;1.55;;;18.50;91.30;;;;;;4954939;28;95872;-71
2022/06/01 09:40:20;;;;;;;1.77;1.77;;;18.70;91.10;;;;;;4954679;28;97853;-71
2022/06/01 09:42:48;;;;;;;;;;;18.90;91.10;;;;;;4956519;28;92541;-71
2022/06/01 09:45:38;;;;;;;0.90;0.90;;;18.80;90.70;;;;;;4955747;28;92454;-71
2022/06/01 09:48:11;;;;;;;1.90;1.80;;;19.00;89.70;;;;;;4954913;28;93132;-71
2022/06/01 09:50:42;;;;;;;1.65;1.65;;;18.90;90.20;;;;;;4956158;28;93041;-71
2022/06/01 09:53:20;;;;;;;0.90;0.90;;;18.80;89.40;;;;;;4954365;28;92529;-71
2022/06/01 09:55:57;;;;;;;1.80;1.80;;;18.90;89.50;;;;;;4956624;28;91635;-71
2022/06/01 10:07:32;;;;;;;0.77;0.77;;;19.20;87.20;;;;;;4956055;28;92498;-71
2022/06/01 10:10:04;;;;;;;1.08;1.08;;;19.40;87.00;;;;;;4938909;28;93351;-71
2022/06/01 10:12:31;;;;;;;2.22;2.17;;;19.60;86.30;;;;;;4957912;28;92995;-71
2022/06/01 10:14:58;;;;;;;2.20;2.03;;;19.90;84.40;;;;;;4958170;28;92841;-71
2022/06/01 10:17:39;;;;;;;1.17;1.17;;;20.10;83.00;;;;;;4941840;28;92421;-71
2022/06/01 10:20:37;;;;;;;1.08;0.98;;;20.30;83.50;;;;;;4959331;28;93336;-71
2022/06/01 10:23:19;;;;;;;1.27;1.25;;;20.40;81.80;;;;;;4959679;28;93067;-71
2022/06/01 10:25:56;;;;;;;2.35;2.25;;;20.50;82.60;;;;;;4959554;28;92528;-71
2022/06/01 10:28:40;;;;;;;2.20;2.10;;;20.80;83.40;;;;;;4940928;28;94465;-71
2022/06/01 10:31:35;;;;;;;2.13;2.03;;;21.00;82.10;;;;;;4956787;28;95670;-71
2022/06/01 10:34:25;;;;;;;3.10;2.80;;;21.30;79.20;;;;;;4957415;28;98103;-71
2022/06/01 10:36:58;;;;;;;4.85;4.45;;;21.60;78.20;;;;;;4957355;28;93052;-71
2022/06/01 10:39:32;;;;;;;2.90;2.70;;;21.80;78.00;;;;;;4941772;28;92425;-71
2022/06/01 10:42:07;;;;;;;3.95;3.65;;;21.90;76.90;;;;;;4959249;28;93401;-71
2022/06/01 10:44:40;;;;;;;2.35;2.17;;;22.10;76.40;;;;;;4941329;28;93103;-71
2022/06/01 10:47:18;;;;;;;2.15;2.05;;;22.10;76.20;;;;;;4957719;28;92603;-71
2022/06/01 10:49:58;;;;;;;2.53;2.42;;;22.00;77.60;;;;;;4957753;28;91710;-71
2022/06/01 10:52:34;;;;;;;2.38;2.28;;;22.00;77.00;;;;;;4941017;28;93316;-71
2022/06/01 10:55:07;;;;;;;3.35;3.15;;;22.00;76.20;;;;;;4941343;28;92508;-71
2022/06/01 10:57:37;;;;;;;2.45;2.35;;;21.90;75.50;;;;;;4957640;28;95059;-71
2022/06/01 11:00:10;;;;;;;3.17;2.92;;;21.90;75.30;;;;;;4940990;28;92548;-71
2022/06/01 11:02:56;;;;;;;3.90;3.60;;;22.00;76.10;;;;;;4940808;28;95908;-71
2022/06/01 11:05:31;;;;;;;4.25;3.85;;;22.10;75.90;;;;;;4958594;28;93019;-71
2022/06/01 11:08:14;;;;;;;3.90;3.60;;;22.10;76.40;;;;;;4957299;28;92481;-71
2022/06/01 11:11:09;;;;;;;3.13;2.88;;;22.10;75.90;;;;;;4958516;28;92437;-71
2022/06/01 11:13:45;;;;;;;3.22;3.03;;;22.00;76.10;;;;;;4958424;28;93470;-71
2022/06/01 11:16:39;;;;;;;3.58;3.30;;;21.80;76.20;;;;;;4958697;28;93039;-71
2022/06/01 11:19:20;;;;;;;5.22;4.82;;;21.80;77.10;;;;;;4956773;28;92573;-71
2022/06/01 11:22:06;;;;;;;4.20;3.90;;;21.90;77.00;;;;;;4957740;28;92463;-71
2022/06/01 11:25:11;;;;;;;4.18;3.97;;;22.20;76.60;;;;;;4938835;28;98147;-71
2022/06/01 11:28:02;;;;;;;2.70;2.50;;;22.80;75.40;;;;;;4957895;28;95309;-71
2022/06/01 11:30:48;;;;;;;4.28;3.97;;;23.10;74.90;;;;;;4958194;28;92484;-71
2022/06/01 11:33:27;;;;;;;2.85;2.65;;;23.20;73.50;;;;;;4956534;28;92622;-71
2022/06/01 11:36:05;;;;;;;3.00;2.80;;;23.30;71.80;;;;;;4958106;28;93283;-71
2022/06/01 11:38:49;;;;;;;4.40;4.10;;;23.20;71.80;;;;;;4956776;28;92955;-71
2022/06/01 11:41:29;;;;;;;3.20;3.00;;;23.00;71.60;;;;;;4958066;28;92526;-71
2022/06/01 11:44:05;;;;;;;2.80;2.22;;;22.60;72.30;;;;;;4940765;28;91636;-71
2022/06/01 11:46:40;;;;;;;3.00;2.70;;;22.10;74.30;;;;;;4957761;28;93311;-71
2022/06/01 11:49:37;;;;;;;3.50;3.30;;;21.40;75.60;;;;;;4957815;28;93555;-71
2022/06/01 11:52:22;;;;;;;2.90;2.70;;;20.70;78.60;;;;;;4955015;28;94974;-71
2022/06/01 11:55:10;;;;;;;3.90;3.60;;;20.10;80.70;;;;;;4957979;28;93337;-71
2022/06/01 11:58:05;;;;;;;4.38;3.10;;;19.70;83.00;;;;;;4957783;28;93984;-71
2022/06/01 12:00:39;;;;;;;3.25;3.05;;;19.10;84.70;;;;;;4956455;28;93065;-71
2022/06/01 12:03:20;;;;;;;4.88;4.47;;;18.50;85.60;;;;;;4958036;28;92435;-71
2022/06/01 12:06:13;;;;;;;4.57;4.03;;;18.00;89.30;;;;;;4957596;28;92381;-71
2022/06/01 12:08:53;;;;;;;4.10;3.60;;;17.60;90.60;;;;;;4939145;28;95867;-71
2022/06/01 12:11:39;;;;;;;3.75;3.10;;;17.10;90.60;;;;;;4956537;28;93018;-71
2022/06/01 12:14:31;;;;;;;4.13;3.50;;;16.80;91.70;;;;;;4956589;28;92554;-71
2022/06/01 12:17:16;;;;;;;5.85;2.88;;;16.60;92.70;;;;;;4951425;28;92572;-71
2022/06/01 12:19:51;;;;;;;2.60;2.40;;;16.50;92.90;;;;;;4956030;28;95650;-71
2022/06/01 12:28:31;;;;;;;3.00;2.80;;;16.50;93.20;;;;;;4919594;28;92634;-70
2022/06/01 12:31:32;;;;;;;4.03;3.60;;;16.80;93.70;;;;;;4922936;28;95689;-70
2022/06/01 12:34:16;;;;;;;3.10;2.90;;;17.20;92.50;;;;;;4933020;28;92946;-70
2022/06/01 12:37:11;;;;;;;3.22;3.03;;;17.70;92.20;;;;;;4957381;28;92464;-71
2022/06/01 12:39:38;;;;;;;2.30;2.10;;;18.40;91.40;;;;;;4953407;28;91787;-71
2022/06/01 12:42:11;;;;;;;2.30;1.90;;;18.80;89.80;;;;;;4955496;28;95968;-71
2022/06/01 12:44:40;;;;;;;2.65;2.50;;;19.10;88.40;;;;;;4956727;28;96430;-71
2022/06/01 12:47:07;;;;;;;4.15;3.75;;;19.50;88.50;;;;;;4955743;28;95304;-71
2022/06/01 12:49:42;;;;;;;2.03;1.92;;;20.00;87.80;;;;;;4939452;28;92453;-71
2022/06/01 12:52:21;;;;;;;1.80;1.70;;;20.60;86.40;;;;;;4923989;28;93777;-71
2022/06/01 12:54:53;;;;;;;1.95;1.85;;;21.10;83.50;;;;;;4952099;28;95652;-71
2022/06/01 12:57:26;;;;;;;1.15;1.15;;;21.50;83.10;;;;;;4952546;28;92595;-71
2022/06/01 13:00:18;;;;;;;1.83;1.73;;;21.50;82.10;;;;;;4937269;28;92994;-71
2022/06/01 13:02:45;;;;;;;1.13;1.13;;;21.80;80.00;;;;;;4951794;28;95819;-71
2022/06/01 13:05:19;;;;;;;1.02;1.00;;;22.00;79.80;;;;;;4952452;28;95633;-71
2022/06/01 13:07:51;;;;;;;2.25;1.80;;;22.20;79.30;;;;;;4952134;28;92508;-71
2022/06/01 13:10:23;;;;;;;1.13;1.13;;;22.30;78.20;;;;;;4951777;28;92518;-71
2022/06/01 13:13:05;;;;;;;1.83;1.10;;;22.20;78.30;;;;;;4950677;28;98199;-71
2022/06/01 13:15:33;;;;;;;2.97;2.88;;;22.20;78.70;;;;;;4936961;28;95137;-71
2022/06/01 13:18:14;;;;;;;1.80;1.00;;;22.30;78.10;;;;;;4936863;28;92368;-71
2022/06/01 13:20:45;;;;;;;1.77;1.70;;;22.50;76.70;;;;;;4937093;28;92431;-71
2022/06/01 13:23:41;;;;;;;1.60;1.60;;;22.60;75.60;;;;;;4936966;28;92526;-71
2022/06/01 13:26:12;;;;;;;1.23;1.23;;;22.70;75.10;;;;;;4937208;28;92629;-71
2022/06/01 13:28:39;;;;;;;1.23;1.20;;;22.70;74.20;;;;;;4952087;28;92517;-71
2022/06/01 13:31:07;;;;;;;2.45;2.35;;;22.70;73.50;;;;;;4935777;28;93376;-71
2022/06/01 13:33:43;;;;;;;2.67;2.47;;;22.80;73.30;;;;;;4936738;28;93366;-71
2022/06/01 13:36:24;;;;;;;2.20;2.10;;;22.70;71.10;;;;;;4936690;28;93070;-71
2022/06/01 13:39:05;;;;;;;2.60;2.50;;;22.40;71.20;;;;;;4950451;28;94985;-71
2022/06/01 13:41:53;;;;;;;5.22;3.03;;;21.80;72.20;;;;;;4919369;28;92540;-71